Terminal Aerodrome Forecast
Issued by NWS

Home | Current Version | Previous Version | Text Only | Print | Product List | Glossary On
Versions: 1 2 3 4 5 6 7 8 9 10 11 12 13 14 15 16 17 18 19 20 21 22
000
FTUS44 KTSA 231100
TAFFYV
TAF
KFYV 231127Z 2312/2412 19005KT P6SM BKN080
     FM240000 00000KT P6SM SCT050
     FM240600 00000KT 2SM BR SCT050=

USA.gov is the U.S. government's official web portal to all federal, state and local government web resources and services.